• Join FlightAware (Why Join?)
  • Login
  • US Flag 
11:52AM EDT


 

Airport Tracker/Info


-or-


 

Live Flight TrackerFlight Track Log ✈ CES5389 ✈ 30-Nov-2013 ✈ ZSSS / SHA - ZHLY / LYA

Flight Track Log - Related Links

Times and Time Zones

All times are in EST time to prevent confusion due to time zone crossing. See the CES5389 flight status page for this flight to view local times or setup timezone preferences in your user account.

Time Position Orientation Groundspeed Altitude Reporting Facility
EST Latitude Longitude Course Direction KTS MPH feet Rate Location/Type
06:35PM 31.5587 120.5225 298° West  Level Estimated
06:36PM 31.5945 120.4408 297° West  Level Estimated
06:37PM 31.6303 120.3590 297° West  Level Estimated
06:38PM 31.6660 120.2772 297° West  Level Estimated
06:39PM 31.7016 120.1953 297° West  Level Estimated
06:40PM 31.7372 120.1133 297° West  Level Estimated
06:41PM 31.7728 120.0312 297° West  Level Estimated
06:42PM 31.8082 119.9491 297° West  Level Estimated
06:43PM 31.8437 119.8670 297° West  Level Estimated
06:44PM 31.8790 119.7847 297° West  Level Estimated
06:45PM 31.9144 119.7025 297° West  Level Estimated
06:46PM 31.9497 119.6201 297° West  Level Estimated
06:47PM 31.9849 119.5377 297° West  Level Estimated
06:48PM 32.0201 119.4552 297° West  Level Estimated
06:49PM 32.0552 119.3727 297° West  Level Estimated
06:50PM 32.0902 119.2900 297° West  Level Estimated
06:51PM 32.1252 119.2074 297° West  Level Estimated
06:52PM 32.1602 119.1246 297° West  Level Estimated
06:53PM 32.1951 119.0418 296° West  Level Estimated
06:54PM 32.2299 118.9590 296° West  Level Estimated
06:55PM 32.2647 118.8761 296° West  Level Estimated
06:56PM 32.2995 118.7931 296° West  Level Estimated
06:57PM 32.3341 118.7100 296° West  Level Estimated
06:58PM 32.3688 118.6269 296° West  Level Estimated
06:59PM 32.4034 118.5437 296° West  Level Estimated
07:00PM 32.4379 118.4605 296° West  Level Estimated
07:01PM 32.4724 118.3772 296° West  Level Estimated
07:02PM 32.5068 118.2938 296° West  Level Estimated
07:03PM 32.5411 118.2104 296° West  Level Estimated
07:04PM 32.5754 118.1269 296° West  Level Estimated
07:05PM 32.6097 118.0433 296° West  Level Estimated
07:06PM 32.6439 117.9597 296° West  Level Estimated
07:07PM 32.6780 117.8760 296° West  Level Estimated
07:08PM 32.7121 117.7923 296° West  Level Estimated
07:09PM 32.7461 117.7084 296° West  Level Estimated
07:10PM 32.7801 117.6245 296° West  Level Estimated
07:11PM 32.8140 117.5406 296° West  Level Estimated
07:12PM 32.8478 117.4566 296° West  Level Estimated
07:13PM 32.8816 117.3725 296° West  Level Estimated
07:14PM 32.9154 117.2884 296° West  Level Estimated
07:15PM 32.9491 117.2042 296° West  Level Estimated
07:16PM 32.9827 117.1199 295° West  Level Estimated
07:17PM 33.0163 117.0356 295° West  Level Estimated
07:18PM 33.0498 116.9512 295° West  Level Estimated
07:19PM 33.0832 116.8667 295° West  Level Estimated
07:20PM 33.1166 116.7822 295° West  Level Estimated
07:21PM 33.1500 116.6976 295° West  Level Estimated
07:22PM 33.1833 116.6130 295° West  Level Estimated
07:23PM 33.2165 116.5283 295° West  Level Estimated
07:24PM 33.2497 116.4435 295° West  Level Estimated
07:25PM 33.2828 116.3586 295° West  Level Estimated
07:26PM 33.3159 116.2737 295° West  Level Estimated
07:27PM 33.3489 116.1888 295° West  Level Estimated
07:28PM 33.3818 116.1037 295° West  Level Estimated
07:29PM 33.4147 116.0186 295° West  Level Estimated
07:30PM 33.4475 115.9334 295° West  Level Estimated
07:31PM 33.4803 115.8482 295° West  Level Estimated
07:32PM 33.5130 115.7629 295° West  Level Estimated
07:33PM 33.5456 115.6776 295° West  Level Estimated
07:34PM 33.5782 115.5921 295° West  Level Estimated
07:35PM 33.6108 115.5067 295° West  Level Estimated
07:36PM 33.6432 115.4211 295° West  Level Estimated
07:37PM 33.6757 115.3355 294° West  Level Estimated
07:38PM 33.7080 115.2498 294° West  Level Estimated
07:39PM 33.7403 115.1640 294° West  Level Estimated
07:40PM 33.7726 115.0782 294° West  Level Estimated
07:41PM 33.8047 114.9924 294° West  Level Estimated
07:42PM 33.8369 114.9064 294° West  Level Estimated
07:43PM 33.8689 114.8204 294° West  Level Estimated
07:44PM 33.9009 114.7344 294° West  Level Estimated
07:45PM 33.9329 114.6482 294° West  Level Estimated
07:46PM 33.9647 114.5620 294° West  Level Estimated
07:47PM 33.9966 114.4758 294° West  Level Estimated
07:48PM 34.0283 114.3894 294° West  Level Estimated
07:49PM 34.0600 114.3030 294° West  Level Estimated
07:50PM 34.0917 114.2166 294° West  Level Estimated
07:51PM 34.1232 114.1301 294° West  Level Estimated
07:52PM 34.1548 114.0435 294° West  Level Estimated
07:53PM 34.1862 113.9568 294° West  Level Estimated
07:54PM 34.2176 113.8701 294° West  Level Estimated
07:55PM 34.2490 113.7833 294° West  Level Estimated
07:56PM 34.2802 113.6965 294° West  Level Estimated
07:57PM 34.3114 113.6096 294° West  Level Estimated
07:58PM 34.3426 113.5226 293° West  Level Estimated
07:59PM 34.3737 113.4356 293° West  Level Estimated
08:00PM 34.4047 113.3485 293° West  Level Estimated
08:01PM 34.4357 113.2613 293° West  Level Estimated
08:02PM 34.4666 113.1741 293° West  Level Estimated
08:03PM 34.4974 113.0868 293° West  Level Estimated
08:04PM 34.5282 112.9994 293° West  Level Estimated
08:05PM 34.5589 112.9120 293° West  Level Estimated
08:06PM 34.5896 112.8245 293° West  Level Estimated
08:07PM 34.6202 112.7369 293° West  Level Estimated
08:08PM 34.6507 112.6493 293° West  Level Estimated
08:09PM 34.6811 112.5616 293° West  Level Estimated
08:10PM 34.7116 112.4739 293° West  Level Estimated
08:11PM 34.7411 112.3883 293° West  Level Estimated
08:12PM 34.7411 112.3883 68° East  Level Estimated
08:13PM 34.7411 112.3883 68° East  Level Estimated
08:14PM 34.7411 112.3883 68° East  Level Estimated
08:15PM 34.7411 112.3883 68° East  Level Estimated
08:16PM 34.7411 112.3883 68° East  Level Estimated